createdAt,value
2022-12-15T00:12:25.573Z,1.89
2022-12-15T00:25:47.272Z,2.19
2022-12-15T00:32:29.397Z,0.65
2022-12-15T00:38:48.568Z,0.85
2022-12-15T00:44:58.911Z,2.41
2022-12-15T00:57:56.614Z,0.99
2022-12-15T01:04:29.649Z,1.96
2022-12-15T01:10:59.695Z,2.17
2022-12-15T01:17:25.798Z,1.86
2022-12-15T01:24:03.307Z,2.38
2022-12-15T01:36:31.418Z,1.83
2022-12-15T01:42:41.091Z,2.22
2022-12-15T01:49:08.464Z,2.41
2022-12-15T01:55:21.981Z,2.61
2022-12-15T02:01:35.651Z,2.64
2022-12-15T02:07:46.556Z,2.45
2022-12-15T02:15:03.825Z,2.67
2022-12-15T02:21:18.308Z,2.68
2022-12-15T02:28:16.305Z,2.52
2022-12-15T02:34:49.370Z,2.30
2022-12-15T02:41:03.383Z,2.59
2022-12-15T02:47:26.513Z,2.30
2022-12-15T02:53:29.516Z,2.65
2022-12-15T03:00:19.042Z,2.82
2022-12-15T03:06:22.936Z,2.23
2022-12-15T03:12:25.794Z,2.34
2022-12-15T03:19:23.653Z,2.85
2022-12-15T03:25:14.677Z,2.61
2022-12-15T03:31:49.984Z,2.31
2022-12-15T03:38:13.153Z,2.15
2022-12-15T03:44:38.465Z,2.49
2022-12-15T03:51:00.533Z,2.62
2022-12-15T03:57:11.563Z,2.25
2022-12-15T04:03:21.435Z,2.73
2022-12-15T04:09:32.543Z,2.54
2022-12-15T04:15:46.998Z,2.49
2022-12-15T04:22:07.674Z,2.46
2022-12-15T04:28:31.173Z,2.12
2022-12-15T04:34:56.082Z,2.31
2022-12-15T04:41:27.459Z,2.39
2022-12-15T04:48:51.474Z,2.48
2022-12-15T04:54:38.482Z,2.33
2022-12-15T05:01:07.963Z,2.24
2022-12-15T05:07:35.763Z,2.61
2022-12-15T05:14:03.733Z,2.72
2022-12-15T05:20:41.487Z,2.62
2022-12-15T05:27:03.356Z,2.82
2022-12-15T05:33:21.695Z,2.82
2022-12-15T05:39:36.941Z,2.94
2022-12-15T05:46:26.275Z,2.76
2022-12-15T05:52:19.102Z,2.72
2022-12-15T05:58:31.974Z,2.38
2022-12-15T06:04:51.215Z,3.09
2022-12-15T06:11:04.184Z,2.71
2022-12-15T06:18:15.593Z,2.79
2022-12-15T06:37:44.634Z,2.27
2022-12-15T06:44:41.529Z,2.61
2022-12-15T06:52:23.934Z,3.34
2022-12-15T06:57:52.166Z,3.30
2022-12-15T07:04:02.286Z,3.19
2022-12-15T07:10:13.159Z,3.13
2022-12-15T07:16:23.871Z,3.09
2022-12-15T07:28:57.989Z,3.50
2022-12-15T07:35:07.597Z,3.63
2022-12-15T07:41:11.012Z,3.49
2022-12-15T07:47:26.978Z,2.91
2022-12-15T08:01:19.149Z,4.28
2022-12-15T08:14:15.035Z,4.66
2022-12-15T08:20:24.829Z,5.21
2022-12-15T08:40:14.964Z,5.46
2022-12-15T08:46:27.226Z,5.79
2022-12-15T08:53:21.494Z,5.67
2022-12-15T08:59:20.333Z,5.78
2022-12-15T09:05:42.798Z,5.89
2022-12-15T09:11:46.953Z,6.37
2022-12-15T09:17:49.419Z,5.77
2022-12-15T09:24:00.210Z,5.67
2022-12-15T09:30:04.622Z,6.64
2022-12-15T09:36:18.911Z,6.68
2022-12-15T09:42:33.010Z,6.92
2022-12-15T09:48:49.987Z,6.61
2022-12-15T09:54:57.427Z,6.75
2022-12-15T10:01:19.549Z,6.40
2022-12-15T10:07:56.204Z,6.77
2022-12-15T10:14:23.217Z,6.95
2022-12-15T10:20:33.673Z,7.12
2022-12-15T10:27:02.734Z,7.47
2022-12-15T10:33:23.609Z,7.36
2022-12-15T10:39:50.364Z,7.81
2022-12-15T10:46:27.935Z,8.18
2022-12-15T10:52:42.644Z,8.43
2022-12-15T10:59:17.303Z,9.45
2022-12-15T11:12:12.072Z,7.88
2022-12-15T11:25:30.586Z,8.52
2022-12-15T11:32:28.651Z,8.84
2022-12-15T11:38:34.803Z,9.32
2022-12-15T11:53:36.500Z,7.93
2022-12-15T12:01:19.157Z,6.69
2022-12-15T12:14:11.460Z,7.86
2022-12-15T12:21:15.060Z,8.28
2022-12-15T12:35:30.755Z,7.67
2022-12-15T12:41:21.483Z,7.26
2022-12-15T12:48:06.695Z,7.48
2022-12-15T12:54:41.511Z,8.13
2022-12-15T13:01:35.666Z,6.93
2022-12-15T13:08:11.873Z,6.61
2022-12-15T13:15:08.136Z,6.85
2022-12-15T13:20:56.637Z,8.04
2022-12-15T13:27:23.300Z,7.66
2022-12-15T13:33:37.604Z,7.39
2022-12-15T13:40:01.864Z,6.96
2022-12-15T13:47:48.231Z,5.95
2022-12-15T13:59:42.777Z,6.28
2022-12-15T14:06:04.338Z,6.16
2022-12-15T14:12:13.839Z,5.20
2022-12-15T14:18:35.391Z,5.62
2022-12-15T14:24:49.132Z,5.42
2022-12-15T14:31:03.783Z,5.24
2022-12-15T14:37:14.906Z,4.80
2022-12-15T14:43:23.377Z,5.03
2022-12-15T14:49:34.885Z,4.97
2022-12-15T14:55:42.348Z,4.38
2022-12-15T15:02:23.527Z,4.11
2022-12-15T15:08:33.120Z,3.77
2022-12-15T15:15:02.967Z,3.85
2022-12-15T15:21:14.190Z,3.61
2022-12-15T15:27:33.024Z,3.52
2022-12-15T15:33:35.517Z,3.11
2022-12-15T15:39:43.725Z,3.29
2022-12-15T15:45:48.547Z,2.46
2022-12-15T15:51:51.907Z,2.89
2022-12-15T15:58:00.731Z,2.46
2022-12-15T16:04:02.895Z,2.43
2022-12-15T16:10:13.372Z,3.14
2022-12-15T16:16:24.839Z,2.57
2022-12-15T16:22:29.528Z,2.91
2022-12-15T16:28:36.824Z,2.56
2022-12-15T16:34:49.468Z,2.57
2022-12-15T16:40:55.236Z,2.15
2022-12-15T16:46:59.464Z,2.32
2022-12-15T16:53:03.876Z,2.42
2022-12-15T16:59:32.037Z,2.61
2022-12-15T17:05:37.345Z,2.61
2022-12-15T17:11:40.314Z,2.64
2022-12-15T17:17:42.767Z,2.30
2022-12-15T17:23:47.201Z,2.11
2022-12-15T17:29:50.938Z,1.21
2022-12-15T17:36:01.210Z,1.93
2022-12-15T17:42:04.675Z,0.74
2022-12-15T17:48:07.133Z,1.04
2022-12-15T17:54:17.345Z,0.60
2022-12-15T18:00:23.137Z,1.17
2022-12-15T18:06:25.614Z,1.69
2022-12-15T18:12:28.046Z,0.42
2022-12-15T18:18:31.505Z,0.28
2022-12-15T18:24:33.947Z,-0.39
2022-12-15T18:30:36.410Z,1.14
2022-12-15T18:36:41.875Z,1.21
2022-12-15T18:42:46.410Z,0.76
2022-12-15T18:48:48.850Z,0.39
2022-12-15T18:54:53.213Z,0.39
2022-12-15T19:00:58.846Z,1.03
2022-12-15T19:07:08.238Z,0.41
2022-12-15T19:13:14.717Z,0.86
2022-12-15T19:19:35.243Z,0.19
2022-12-15T19:25:42.779Z,-0.32
2022-12-15T19:31:47.292Z,0.21
2022-12-15T19:37:55.733Z,-0.30
2022-12-15T19:43:58.160Z,-0.01
2022-12-15T19:50:00.608Z,0.86
2022-12-15T19:56:03.035Z,-0.96
2022-12-15T20:02:07.007Z,0.57
2022-12-15T20:08:22.020Z,-0.55
2022-12-15T20:14:25.481Z,0.46
2022-12-15T20:20:29.952Z,0.45
2022-12-15T20:26:33.388Z,0.84
2022-12-15T20:32:38.525Z,-0.35
2022-12-15T20:38:46.354Z,0.38
2022-12-15T20:44:49.825Z,-0.54
2022-12-15T20:50:52.271Z,0.13
2022-12-15T20:56:54.778Z,0.33
2022-12-15T21:02:57.320Z,-0.03
2022-12-15T21:08:59.688Z,-0.06
2022-12-15T21:15:02.124Z,0.14
2022-12-15T21:21:16.694Z,0.21
2022-12-15T21:27:19.130Z,0.18
2022-12-15T21:33:21.845Z,-0.11
2022-12-15T21:39:35.030Z,-0.98
2022-12-15T21:45:37.485Z,-0.91
2022-12-15T21:51:40.970Z,-0.68
2022-12-15T21:57:43.429Z,-0.12
2022-12-15T22:03:51.681Z,-0.10
2022-12-15T22:09:53.546Z,0.09
2022-12-15T22:15:55.943Z,-0.45
2022-12-15T22:21:59.288Z,0.24
2022-12-15T22:28:01.793Z,0.37
2022-12-15T22:34:13.269Z,0.39
2022-12-15T22:40:16.722Z,0.08
2022-12-15T22:46:22.283Z,0.05
2022-12-15T22:52:24.710Z,0.15
2022-12-15T22:58:40.242Z,-0.01
2022-12-15T23:04:42.670Z,0.15
2022-12-15T23:11:03.228Z,0.31
2022-12-15T23:17:05.718Z,0.27
2022-12-15T23:23:10.862Z,0.10
2022-12-15T23:29:13.658Z,-0.30
2022-12-15T23:35:17.921Z,0.05
2022-12-15T23:41:20.644Z,0.34
2022-12-15T23:47:23.042Z,0.52
2022-12-15T23:53:26.486Z,0.65
2022-12-15T23:59:28.921Z,0.31
